Solis — ZGFD7 — position and weather

sailwx.info

Track history (hours):
 
Tides and Currents Weather Stations Pressure Air Temp Water Temp Dewpoint Dewpoint Depression Visibility Wind Speed Wind Dir Waves Ship Positions

Solis

Last reported at 2018-May-02 21:24 UTC. Time now 2018-Jul-20 23:41 UTC.
Position N 09°17' W 079°55'.
Warning: this ship's position is months out of date.

Length 34 m; draft 2.5 m.

Type: Pleasure craft. MMSI: 319086800.

Date/timePositionNaut miles runAvg speedWind from/ knotsBaromVisibWave heightAir tempDewpointWater temp
2018-May-02 21:24N 09°17' W 079°55'2 4.8
2018-May-02 21:00N 09°19' W 079°55'2 3.5
2018-May-02 20:31N 09°21' W 079°55'0 0.0
2018-May-02 20:00N 09°21' W 079°55'0 0.0
2018-May-02 19:30N 09°21' W 079°55'0 0.0
2018-May-02 19:00N 09°21' W 079°55'0 0.0
2018-May-02 18:30N 09°21' W 079°55'0 0.1
2018-May-02 18:00N 09°21' W 079°55'0 0.1
2018-May-02 17:30N 09°21' W 079°55'0 0.0
2018-May-02 17:00N 09°21' W 079°55'0 0.0
2018-May-02 16:30N 09°21' W 079°55'0 0.0
2018-May-02 16:00N 09°21' W 079°55'2 3.1
2018-May-02 15:30N 09°22' W 079°56'1 0.3
2018-May-02 12:03N 09°22' W 079°57'0 0.0
2018-May-02 11:42N 09°22' W 079°57'0 0.0
2018-May-02 11:24N 09°22' W 079°57'0 0.0
2018-May-02 06:00N 09°22' W 079°57'0 0.0
2018-May-02 05:24N 09°22' W 079°57'0 0.0
2018-May-02 00:45N 09°22' W 079°57'0 0.0
2018-May-02 00:21N 09°22' W 079°57'0 0.0
2018-May-01 23:51N 09°22' W 079°57'0 0.0
2018-May-01 23:21N 09°22' W 079°57'0 0.0
2018-May-01 22:42N 09°22' W 079°57'0 0.0
2018-May-01 22:30N 09°22' W 079°57'0 0.0
2018-May-01 18:03N 09°22' W 079°57'0 0.0
2018-May-01 17:57N 09°22' W 079°57'0 0.0
2018-May-01 04:40N 09°22' W 079°57'0 0.0
2018-May-01 04:16N 09°22' W 079°57'0 0.0
2018-May-01 03:52N 09°22' W 079°57'0 0.0
2018-May-01 03:28N 09°22' W 079°57'0 0.0
2018-May-01 02:04N 09°22' W 079°57'0 0.0
2018-May-01 01:46N 09°22' W 079°57'0 0.0
2018-Apr-30 23:19N 09°22' W 079°57'0 0.0
2018-Apr-30 22:52N 09°22' W 079°57'0 0.0
2018-Apr-30 22:19N 09°22' W 079°57'0 0.0
2018-Apr-30 21:55N 09°22' W 079°57'0 0.0
2018-Apr-30 21:28N 09°22' W 079°57'0 0.0
2018-Apr-30 20:52N 09°22' W 079°57'0 0.0
2018-Apr-30 20:22N 09°22' W 079°57'0 0.0
2018-Apr-30 19:52N 09°22' W 079°57'0 0.0
2018-Apr-30 19:28N 09°22' W 079°57'0 0.0
2018-Apr-30 18:42N 09°22' W 079°57'0 0.0
2018-Apr-30 18:13N 09°22' W 079°57'0 0.0
2018-Apr-30 18:00N 09°22' W 079°57'0 0.0
2018-Apr-30 17:28N 09°22' W 079°57'0 0.0
2018-Apr-30 16:57N 09°22' W 079°57'0 0.4
2018-Apr-30 16:30N 09°22' W 079°57'1 1.0
2018-Apr-30 16:01N 09°22' W 079°56'0 0.1
2018-Apr-30 15:30N 09°22' W 079°56'0 0.0
2018-Apr-30 15:00N 09°22' W 079°56'0 0.0
2018-Apr-30 14:30N 09°22' W 079°56'0 0.0
2018-Apr-30 14:01N 09°22' W 079°56'0 0.0
2018-Apr-30 13:31N 09°22' W 079°56'0 0.0
2018-Apr-30 13:01N 09°22' W 079°56'0 0.1
2018-Apr-30 12:31N 09°22' W 079°56'0 0.3
2018-Apr-30 11:59N 09°22' W 079°56'0 0.2
2018-Apr-30 11:30N 09°22' W 079°56'1 1.1
2018-Apr-30 11:00N 09°23' W 079°56'4 8.3
2018-Apr-30 10:30N 09°27' W 079°55'  
2018-Apr-25 17:48N 25°35' W 080°05'3 8.0
2018-Apr-25 17:29N 25°37' W 080°04'4 7.8
2018-Apr-25 17:00N 25°41' W 080°04'4 8.0
2018-Apr-25 16:31N 25°45' W 080°03'4 8.0
2018-Apr-25 16:01N 25°49' W 080°03'5 9.2
2018-Apr-25 15:30N 25°53' W 080°04'511.1
2018-Apr-25 15:00N 25°59' W 080°04'510.6
2018-Apr-25 14:30N 26°04' W 080°05'2 4.8
2018-Apr-25 14:01N 26°06' W 080°07'0 0.0
2018-Apr-25 13:31N 26°06' W 080°07'0 0.0
2018-Apr-25 13:00N 26°06' W 080°07'0 0.1
2018-Apr-25 12:30N 26°06' W 080°07'1 1.4
2018-Apr-25 12:01N 26°07' W 080°07'1 1.1
2018-Apr-25 11:28N 26°07' W 080°06'0 0.0
2018-Apr-25 10:58N 26°07' W 080°06'0 0.0
2018-Apr-25 10:28N 26°07' W 080°06'0 0.0
2018-Apr-25 09:58N 26°07' W 080°06'0 0.0
2018-Apr-25 09:28N 26°07' W 080°06'0 0.0
2018-Apr-25 08:58N 26°07' W 080°06'0 0.0
2018-Apr-25 08:28N 26°07' W 080°06'0 0.0
2018-Apr-25 07:55N 26°07' W 080°06'0 0.0
2018-Apr-25 07:28N 26°07' W 080°06'0 0.0
2018-Apr-25 06:55N 26°07' W 080°06'0 0.0
2018-Apr-25 06:28N 26°07' W 080°06'0 0.0
2018-Apr-25 05:52N 26°07' W 080°06'0 0.0
2018-Apr-25 05:28N 26°07' W 080°06'0 0.0
2018-Apr-25 04:55N 26°07' W 080°06'0 0.0
2018-Apr-25 04:28N 26°07' W 080°06'0 0.0
2018-Apr-25 03:55N 26°07' W 080°06'0 0.0
2018-Apr-25 03:28N 26°07' W 080°06'0 0.0
2018-Apr-25 02:55N 26°07' W 080°06'0 0.0
2018-Apr-25 02:25N 26°07' W 080°06'0 0.0
2018-Apr-25 01:55N 26°07' W 080°06'0 0.0
2018-Apr-25 01:25N 26°07' W 080°06'0 0.0
2018-Apr-25 00:58N 26°07' W 080°06'0 0.0
2018-Apr-25 00:28N 26°07' W 080°06'0 0.0
2018-Apr-24 23:55N 26°07' W 080°06'0 0.0
2018-Apr-24 23:25N 26°07' W 080°06'0 0.0
2018-Apr-24 22:58N 26°07' W 080°06'0 0.0
2018-Apr-24 22:28N 26°07' W 080°06'0 0.0
2018-Apr-24 21:58N 26°07' W 080°06'0 0.0
2018-Apr-24 21:28N 26°07' W 080°06'0 0.0
2018-Apr-24 20:55N 26°07' W 080°06'0 0.0
2018-Apr-24 20:28N 26°07' W 080°06'0 0.0
2018-Apr-24 19:55N 26°07' W 080°06'0 0.0
2018-Apr-24 19:28N 26°07' W 080°06'0 0.0
2018-Apr-24 18:58N 26°07' W 080°06'0 0.0
2018-Apr-24 18:28N 26°07' W 080°06'0 0.0
2018-Apr-24 17:58N 26°07' W 080°06'0 0.0
2018-Apr-24 17:28N 26°07' W 080°06'0 0.0
2018-Apr-24 16:55N 26°07' W 080°06'0 0.0
2018-Apr-24 16:28N 26°07' W 080°06'0 0.0
2018-Apr-24 15:55N 26°07' W 080°06'0 0.0
2018-Apr-24 15:28N 26°07' W 080°06'0 0.0
2018-Apr-24 14:56N 26°07' W 080°06'0 0.0
2018-Apr-24 14:30N 26°07' W 080°06'0 0.0
2018-Apr-24 14:00N 26°07' W 080°06'0 0.1
2018-Apr-24 13:30N 26°07' W 080°07'0 0.3
2018-Apr-24 12:49N 26°07' W 080°06'0 0.0
2018-Apr-24 12:07N 26°07' W 080°06'0 0.0
2018-Apr-24 11:55N 26°07' W 080°06'0 0.0
2018-Apr-24 11:22N 26°07' W 080°06'0 0.0
2018-Apr-24 10:52N 26°07' W 080°06'0 0.0
2018-Apr-24 10:19N 26°07' W 080°06'0 0.0
2018-Apr-24 09:52N 26°07' W 080°06'0 0.0
2018-Apr-24 09:22N 26°07' W 080°06'0 0.0
2018-Apr-24 08:55N 26°07' W 080°06'0 0.0
2018-Apr-24 08:25N 26°07' W 080°06'0 0.0
2018-Apr-24 07:55N 26°07' W 080°06'0 0.0
2018-Apr-24 07:25N 26°07' W 080°06'0 0.0
2018-Apr-24 06:55N 26°07' W 080°06'0 0.0
2018-Apr-24 06:25N 26°07' W 080°06'0 0.0
2018-Apr-24 05:55N 26°07' W 080°06'0 0.0
2018-Apr-24 05:28N 26°07' W 080°06'0 0.0
2018-Apr-24 04:55N 26°07' W 080°06'0 0.0
2018-Apr-24 04:28N 26°07' W 080°06'0 0.0
2018-Apr-24 03:58N 26°07' W 080°06'0 0.0
2018-Apr-24 03:28N 26°07' W 080°06'0 0.0
2018-Apr-24 02:55N 26°07' W 080°06'0 0.0
2018-Apr-24 02:28N 26°07' W 080°06'0 0.0
2018-Apr-24 01:58N 26°07' W 080°06'0 0.0
2018-Apr-24 01:28N 26°07' W 080°06'0 0.0
2018-Apr-24 00:58N 26°07' W 080°06'0 0.0
2018-Apr-24 00:28N 26°07' W 080°06'0 0.0
2018-Apr-23 23:58N 26°07' W 080°06'0 0.0
2018-Apr-23 23:28N 26°07' W 080°06'0 0.0
2018-Apr-23 22:58N 26°07' W 080°06'0 0.0
2018-Apr-23 22:28N 26°07' W 080°06'0 0.0
2018-Apr-23 21:58N 26°07' W 080°06'0 0.0
2018-Apr-23 21:19N 26°07' W 080°06'0 0.0
2018-Apr-23 20:49N 26°07' W 080°06'0 0.0
2018-Apr-23 20:19N 26°07' W 080°06'0 0.0
2018-Apr-23 19:52N 26°07' W 080°06'0 0.0
2018-Apr-23 19:31N 26°07' W 080°06'0 0.0
2018-Apr-23 18:52N 26°07' W 080°06'0 0.0
2018-Apr-23 18:19N 26°07' W 080°06'0 0.0
2018-Apr-23 17:52N 26°07' W 080°06'0 0.0
2018-Apr-23 17:19N 26°07' W 080°06'0 0.0
2018-Apr-23 16:55N 26°07' W 080°06'0 0.0
2018-Apr-23 16:25N 26°07' W 080°06'0 0.0
2018-Apr-23 15:55N 26°07' W 080°06'0 0.0
2018-Apr-23 15:25N 26°07' W 080°06'0 0.0
2018-Apr-23 14:51N 26°07' W 080°06'0 0.0
2018-Apr-23 14:21N 26°07' W 080°06'0 0.0
2018-Apr-23 13:54N 26°07' W 080°06'0 0.0
2018-Apr-23 13:27N 26°07' W 080°06'0 0.0
2018-Apr-23 12:57N 26°07' W 080°06'0 0.0
2018-Apr-23 12:24N 26°07' W 080°06'0 0.0
2018-Apr-23 11:57N 26°07' W 080°06'0 0.0
2018-Apr-23 11:27N 26°07' W 080°06'0 0.0
2018-Apr-23 10:57N 26°07' W 080°06'0 0.0
2018-Apr-23 10:30N 26°07' W 080°06'0 0.0
2018-Apr-23 10:00N 26°07' W 080°06'0 0.0
2018-Apr-23 09:27N 26°07' W 080°06'0 0.0
2018-Apr-23 09:00N 26°07' W 080°06'0 0.0
2018-Apr-23 08:30N 26°07' W 080°06'0 0.0
2018-Apr-23 08:00N 26°07' W 080°06'0 0.0
2018-Apr-23 07:30N 26°07' W 080°06'0 0.0
2018-Apr-23 06:57N 26°07' W 080°06'0 0.0
2018-Apr-23 06:30N 26°07' W 080°06'0 0.0
2018-Apr-23 06:00N 26°07' W 080°06'0 0.0
2018-Apr-23 05:30N 26°07' W 080°06'0 0.0
2018-Apr-23 05:00N 26°07' W 080°06'0 0.0
2018-Apr-23 04:30N 26°07' W 080°06'0 0.0
2018-Apr-23 04:00N 26°07' W 080°06'0 0.0
2018-Apr-23 03:30N 26°07' W 080°06'0 0.0
2018-Apr-23 03:00N 26°07' W 080°06'0 0.0
2018-Apr-23 02:21N 26°07' W 080°06'0 0.0
2018-Apr-23 01:48N 26°07' W 080°06'0 0.0
2018-Apr-23 01:21N 26°07' W 080°06'0 0.0
2018-Apr-23 00:51N 26°07' W 080°06'0 0.0
2018-Apr-23 00:24N 26°07' W 080°06'0 0.0
2018-Apr-22 23:54N 26°07' W 080°06'0 0.0
2018-Apr-22 23:24N 26°07' W 080°06'0 0.0
2018-Apr-22 23:00N 26°07' W 080°06'0 0.0
2018-Apr-22 22:30N 26°07' W 080°06'0 0.0
2018-Apr-22 21:54N 26°07' W 080°06'0 0.0
2018-Apr-22 21:30N 26°07' W 080°06'  
Track history (hours):
 
Tides and Currents Weather Stations Pressure Air Temp Water Temp Dewpoint Dewpoint Depression Visibility Wind Speed Wind Dir Waves Ship Positions

Solis

Last reported at 2018-May-02 21:24 UTC. Time now 2018-Jul-20 23:41 UTC.
Position N 09°17' W 079°55'.
Warning: this ship's position is months out of date.

Length 34 m; draft 2.5 m.

Type: Pleasure craft. MMSI: 319086800.

Date/timePositionNaut miles runAvg speedWind from/ knotsBaromVisibWave heightAir tempDewpointWater temp
2018-May-02 21:24N 09°17' W 079°55'2 4.8
2018-May-02 21:00N 09°19' W 079°55'2 3.5
2018-May-02 20:31N 09°21' W 079°55'0 0.0
2018-May-02 20:00N 09°21' W 079°55'0 0.0
2018-May-02 19:30N 09°21' W 079°55'0 0.0
2018-May-02 19:00N 09°21' W 079°55'0 0.0
2018-May-02 18:30N 09°21' W 079°55'0 0.1
2018-May-02 18:00N 09°21' W 079°55'0 0.1
2018-May-02 17:30N 09°21' W 079°55'0 0.0
2018-May-02 17:00N 09°21' W 079°55'0 0.0
2018-May-02 16:30N 09°21' W 079°55'0 0.0
2018-May-02 16:00N 09°21' W 079°55'2 3.1
2018-May-02 15:30N 09°22' W 079°56'1 0.3
2018-May-02 12:03N 09°22' W 079°57'0 0.0
2018-May-02 11:42N 09°22' W 079°57'0 0.0
2018-May-02 11:24N 09°22' W 079°57'0 0.0
2018-May-02 06:00N 09°22' W 079°57'0 0.0
2018-May-02 05:24N 09°22' W 079°57'0 0.0
2018-May-02 00:45N 09°22' W 079°57'0 0.0
2018-May-02 00:21N 09°22' W 079°57'0 0.0
2018-May-01 23:51N 09°22' W 079°57'0 0.0
2018-May-01 23:21N 09°22' W 079°57'0 0.0
2018-May-01 22:42N 09°22' W 079°57'0 0.0
2018-May-01 22:30N 09°22' W 079°57'0 0.0
2018-May-01 18:03N 09°22' W 079°57'0 0.0
2018-May-01 17:57N 09°22' W 079°57'0 0.0
2018-May-01 04:40N 09°22' W 079°57'0 0.0
2018-May-01 04:16N 09°22' W 079°57'0 0.0
2018-May-01 03:52N 09°22' W 079°57'0 0.0
2018-May-01 03:28N 09°22' W 079°57'0 0.0
2018-May-01 02:04N 09°22' W 079°57'0 0.0
2018-May-01 01:46N 09°22' W 079°57'0 0.0
2018-Apr-30 23:19N 09°22' W 079°57'0 0.0
2018-Apr-30 22:52N 09°22' W 079°57'0 0.0
2018-Apr-30 22:19N 09°22' W 079°57'0 0.0
2018-Apr-30 21:55N 09°22' W 079°57'0 0.0
2018-Apr-30 21:28N 09°22' W 079°57'0 0.0
2018-Apr-30 20:52N 09°22' W 079°57'0 0.0
2018-Apr-30 20:22N 09°22' W 079°57'0 0.0
2018-Apr-30 19:52N 09°22' W 079°57'0 0.0
2018-Apr-30 19:28N 09°22' W 079°57'0 0.0
2018-Apr-30 18:42N 09°22' W 079°57'0 0.0
2018-Apr-30 18:13N 09°22' W 079°57'0 0.0
2018-Apr-30 18:00N 09°22' W 079°57'0 0.0
2018-Apr-30 17:28N 09°22' W 079°57'0 0.0
2018-Apr-30 16:57N 09°22' W 079°57'0 0.4
2018-Apr-30 16:30N 09°22' W 079°57'1 1.0
2018-Apr-30 16:01N 09°22' W 079°56'0 0.1
2018-Apr-30 15:30N 09°22' W 079°56'0 0.0
2018-Apr-30 15:00N 09°22' W 079°56'0 0.0
2018-Apr-30 14:30N 09°22' W 079°56'0 0.0
2018-Apr-30 14:01N 09°22' W 079°56'0 0.0
2018-Apr-30 13:31N 09°22' W 079°56'0 0.0
2018-Apr-30 13:01N 09°22' W 079°56'0 0.1
2018-Apr-30 12:31N 09°22' W 079°56'0 0.3
2018-Apr-30 11:59N 09°22' W 079°56'0 0.2
2018-Apr-30 11:30N 09°22' W 079°56'1 1.1
2018-Apr-30 11:00N 09°23' W 079°56'4 8.3
2018-Apr-30 10:30N 09°27' W 079°55'  
2018-Apr-25 17:48N 25°35' W 080°05'3 8.0
2018-Apr-25 17:29N 25°37' W 080°04'4 7.8
2018-Apr-25 17:00N 25°41' W 080°04'4 8.0
2018-Apr-25 16:31N 25°45' W 080°03'4 8.0
2018-Apr-25 16:01N 25°49' W 080°03'5 9.2
2018-Apr-25 15:30N 25°53' W 080°04'511.1
2018-Apr-25 15:00N 25°59' W 080°04'510.6
2018-Apr-25 14:30N 26°04' W 080°05'2 4.8
2018-Apr-25 14:01N 26°06' W 080°07'0 0.0
2018-Apr-25 13:31N 26°06' W 080°07'0 0.0
2018-Apr-25 13:00N 26°06' W 080°07'0 0.1
2018-Apr-25 12:30N 26°06' W 080°07'1 1.4
2018-Apr-25 12:01N 26°07' W 080°07'1 1.1
2018-Apr-25 11:28N 26°07' W 080°06'0 0.0
2018-Apr-25 10:58N 26°07' W 080°06'0 0.0
2018-Apr-25 10:28N 26°07' W 080°06'0 0.0
2018-Apr-25 09:58N 26°07' W 080°06'0 0.0
2018-Apr-25 09:28N 26°07' W 080°06'0 0.0
2018-Apr-25 08:58N 26°07' W 080°06'0 0.0
2018-Apr-25 08:28N 26°07' W 080°06'0 0.0
2018-Apr-25 07:55N 26°07' W 080°06'0 0.0
2018-Apr-25 07:28N 26°07' W 080°06'0 0.0
2018-Apr-25 06:55N 26°07' W 080°06'0 0.0
2018-Apr-25 06:28N 26°07' W 080°06'0 0.0
2018-Apr-25 05:52N 26°07' W 080°06'0 0.0
2018-Apr-25 05:28N 26°07' W 080°06'0 0.0
2018-Apr-25 04:55N 26°07' W 080°06'0 0.0
2018-Apr-25 04:28N 26°07' W 080°06'0 0.0
2018-Apr-25 03:55N 26°07' W 080°06'0 0.0
2018-Apr-25 03:28N 26°07' W 080°06'0 0.0
2018-Apr-25 02:55N 26°07' W 080°06'0 0.0
2018-Apr-25 02:25N 26°07' W 080°06'0 0.0
2018-Apr-25 01:55N 26°07' W 080°06'0 0.0
2018-Apr-25 01:25N 26°07' W 080°06'0 0.0
2018-Apr-25 00:58N 26°07' W 080°06'0 0.0
2018-Apr-25 00:28N 26°07' W 080°06'0 0.0
2018-Apr-24 23:55N 26°07' W 080°06'0 0.0
2018-Apr-24 23:25N 26°07' W 080°06'0 0.0
2018-Apr-24 22:58N 26°07' W 080°06'0 0.0
2018-Apr-24 22:28N 26°07' W 080°06'0 0.0
2018-Apr-24 21:58N 26°07' W 080°06'0 0.0
2018-Apr-24 21:28N 26°07' W 080°06'0 0.0
2018-Apr-24 20:55N 26°07' W 080°06'0 0.0
2018-Apr-24 20:28N 26°07' W 080°06'0 0.0
2018-Apr-24 19:55N 26°07' W 080°06'0 0.0
2018-Apr-24 19:28N 26°07' W 080°06'0 0.0
2018-Apr-24 18:58N 26°07' W 080°06'0 0.0
2018-Apr-24 18:28N 26°07' W 080°06'0 0.0
2018-Apr-24 17:58N 26°07' W 080°06'0 0.0
2018-Apr-24 17:28N 26°07' W 080°06'0 0.0
2018-Apr-24 16:55N 26°07' W 080°06'0 0.0
2018-Apr-24 16:28N 26°07' W 080°06'0 0.0
2018-Apr-24 15:55N 26°07' W 080°06'0 0.0
2018-Apr-24 15:28N 26°07' W 080°06'0 0.0
2018-Apr-24 14:56N 26°07' W 080°06'0 0.0
2018-Apr-24 14:30N 26°07' W 080°06'0 0.0
2018-Apr-24 14:00N 26°07' W 080°06'0 0.1
2018-Apr-24 13:30N 26°07' W 080°07'0 0.3
2018-Apr-24 12:49N 26°07' W 080°06'0 0.0
2018-Apr-24 12:07N 26°07' W 080°06'0 0.0
2018-Apr-24 11:55N 26°07' W 080°06'0 0.0
2018-Apr-24 11:22N 26°07' W 080°06'0 0.0
2018-Apr-24 10:52N 26°07' W 080°06'0 0.0
2018-Apr-24 10:19N 26°07' W 080°06'0 0.0
2018-Apr-24 09:52N 26°07' W 080°06'0 0.0
2018-Apr-24 09:22N 26°07' W 080°06'0 0.0
2018-Apr-24 08:55N 26°07' W 080°06'0 0.0
2018-Apr-24 08:25N 26°07' W 080°06'0 0.0
2018-Apr-24 07:55N 26°07' W 080°06'0 0.0
2018-Apr-24 07:25N 26°07' W 080°06'0 0.0
2018-Apr-24 06:55N 26°07' W 080°06'0 0.0
2018-Apr-24 06:25N 26°07' W 080°06'0 0.0
2018-Apr-24 05:55N 26°07' W 080°06'0 0.0
2018-Apr-24 05:28N 26°07' W 080°06'0 0.0
2018-Apr-24 04:55N 26°07' W 080°06'0 0.0
2018-Apr-24 04:28N 26°07' W 080°06'0 0.0
2018-Apr-24 03:58N 26°07' W 080°06'0 0.0
2018-Apr-24 03:28N 26°07' W 080°06'0 0.0
2018-Apr-24 02:55N 26°07' W 080°06'0 0.0
2018-Apr-24 02:28N 26°07' W 080°06'0 0.0
2018-Apr-24 01:58N 26°07' W 080°06'0 0.0
2018-Apr-24 01:28N 26°07' W 080°06'0 0.0
2018-Apr-24 00:58N 26°07' W 080°06'0 0.0
2018-Apr-24 00:28N 26°07' W 080°06'0 0.0
2018-Apr-23 23:58N 26°07' W 080°06'0 0.0
2018-Apr-23 23:28N 26°07' W 080°06'0 0.0
2018-Apr-23 22:58N 26°07' W 080°06'0 0.0
2018-Apr-23 22:28N 26°07' W 080°06'0 0.0
2018-Apr-23 21:58N 26°07' W 080°06'0 0.0
2018-Apr-23 21:19N 26°07' W 080°06'0 0.0
2018-Apr-23 20:49N 26°07' W 080°06'0 0.0
2018-Apr-23 20:19N 26°07' W 080°06'0 0.0
2018-Apr-23 19:52N 26°07' W 080°06'0 0.0
2018-Apr-23 19:31N 26°07' W 080°06'0 0.0
2018-Apr-23 18:52N 26°07' W 080°06'0 0.0
2018-Apr-23 18:19N 26°07' W 080°06'0 0.0
2018-Apr-23 17:52N 26°07' W 080°06'0 0.0
2018-Apr-23 17:19N 26°07' W 080°06'0 0.0
2018-Apr-23 16:55N 26°07' W 080°06'0 0.0
2018-Apr-23 16:25N 26°07' W 080°06'0 0.0
2018-Apr-23 15:55N 26°07' W 080°06'0 0.0
2018-Apr-23 15:25N 26°07' W 080°06'0 0.0
2018-Apr-23 14:51N 26°07' W 080°06'0 0.0
2018-Apr-23 14:21N 26°07' W 080°06'0 0.0
2018-Apr-23 13:54N 26°07' W 080°06'0 0.0
2018-Apr-23 13:27N 26°07' W 080°06'0 0.0
2018-Apr-23 12:57N 26°07' W 080°06'0 0.0
2018-Apr-23 12:24N 26°07' W 080°06'0 0.0
2018-Apr-23 11:57N 26°07' W 080°06'0 0.0
2018-Apr-23 11:27N 26°07' W 080°06'0 0.0
2018-Apr-23 10:57N 26°07' W 080°06'0 0.0
2018-Apr-23 10:30N 26°07' W 080°06'0 0.0
2018-Apr-23 10:00N 26°07' W 080°06'0 0.0
2018-Apr-23 09:27N 26°07' W 080°06'0 0.0
2018-Apr-23 09:00N 26°07' W 080°06'0 0.0
2018-Apr-23 08:30N 26°07' W 080°06'0 0.0
2018-Apr-23 08:00N 26°07' W 080°06'0 0.0
2018-Apr-23 07:30N 26°07' W 080°06'0 0.0
2018-Apr-23 06:57N 26°07' W 080°06'0 0.0
2018-Apr-23 06:30N 26°07' W 080°06'0 0.0
2018-Apr-23 06:00N 26°07' W 080°06'0 0.0
2018-Apr-23 05:30N 26°07' W 080°06'0 0.0
2018-Apr-23 05:00N 26°07' W 080°06'0 0.0
2018-Apr-23 04:30N 26°07' W 080°06'0 0.0
2018-Apr-23 04:00N 26°07' W 080°06'0 0.0
2018-Apr-23 03:30N 26°07' W 080°06'0 0.0
2018-Apr-23 03:00N 26°07' W 080°06'0 0.0
2018-Apr-23 02:21N 26°07' W 080°06'0 0.0
2018-Apr-23 01:48N 26°07' W 080°06'0 0.0
2018-Apr-23 01:21N 26°07' W 080°06'0 0.0
2018-Apr-23 00:51N 26°07' W 080°06'0 0.0
2018-Apr-23 00:24N 26°07' W 080°06'0 0.0
2018-Apr-22 23:54N 26°07' W 080°06'0 0.0
2018-Apr-22 23:24N 26°07' W 080°06'0 0.0
2018-Apr-22 23:00N 26°07' W 080°06'0 0.0
2018-Apr-22 22:30N 26°07' W 080°06'0 0.0
2018-Apr-22 21:54N 26°07' W 080°06'0 0.0
2018-Apr-22 21:30N 26°07' W 080°06'  

Dump ship's entire track history